Annette Island Airport Annette US
ICAO: PANT
IATA:
Category: Medium
Scheduled Services:

Elevation: 119 ft
TransAlt. 18000 ft.

Airport Communications:
ASOS:135.75
CTAF:122.9
KETCHIKAN RDO:122.4

PANT Zoom In..

If you have problems with the map follow the link
https://www.worldairports.se/pages/airport.php?
ICAO=PANT

Runways:

(A) RW 02 length 5709 ft width 150 ft
---- / hdg 20

(B) RW 12 length 7493 ft width 150 ft
---- / hdg 124

(C) RW 20 length 5709 ft width 150 ft
---- / hdg 200

(D) RW 30 length 7493 ft width 150 ft
---- / hdg 304

Location; PANT
Day. 18 / Time. 01.53 Zulu
* Altimeter: 30.45
* Temperature: -01° c. -30.2°f.
* Wind from: 330° Speed 04 kn.
Dewpoint: -09° c.
Visibility: 10 Statute Miles.
Clouds: Clear (automated report).

PANT 180153Z AUTO 33004KT 10SM CLR M01/M09 A3045 RMK SLP314 T10061094 TSNO VIA AUTODIAL


Wind From 330°
Speed 04 kn.

 
 
jpsmedia.com for Web Design worldairports.se 2019   terms of use